Latest Weather Observations for Cooma Airport

IDN60901

Issued at 11:31 am EDT Friday 15 November 2019 (issued every 10 minutes, with the page automatically refreshed every 10 minutes)

About weather observations | Map of Canberra area stations | Latest observations for Canberra area | Other Formats
Station Details ID: 070217 Name: COOMA AIRPORT AWS Lat: -36.29 Lon: 148.97 Height: 930.0 m
Data from the previous 72 hours. | See also: Recent months at Cooma Airport
Date/Time
EDT
Temp
°C
App
Temp
°C
Dew
Point
°C
Rel
Hum
%
Delta-T
°C
Wind Press
QNH
hPa
Press
MSL
hPa
Rain since
9am
mm
Dir  Spd
km/h
Gust
km/h
Spd
kts
Gust
kts
15/11:30am 18.4 11.0 -0.4 28 8.6 WNW 28 39 15 21 1009.7 1007.1 0.0
15/11:01am 19.4 12.2 0.9 29 8.7 WNW 28 46 15 25 1010.0 1007.4 0.0
15/11:00am 19.6 12.8 1.1 29 8.8 WNW 26 46 14 25 1010.0 1007.4 0.0
15/10:30am 17.2 10.1 -1.0 29 8.1 WNW 26 44 14 24 1010.1 1007.5 0.0
15/10:03am 17.3 10.2 1.3 34 7.5 WNW 28 46 15 25 1010.1 1007.5 0.0
15/10:00am 17.2 10.4 0.8 33 7.6 WNW 26 46 14 25 1010.1 1007.5 0.0
15/09:30am 16.3 9.4 2.3 39 6.6 WNW 28 43 15 23 1010.3 1007.8 0.0
15/09:00am 15.0 8.7 3.5 46 5.5 WNW 26 39 14 21 1010.6 1008.1 0.0
15/08:30am 14.0 8.7 3.2 48 5.1 WNW 20 33 11 18 1011.0 1008.4 0.0
15/08:00am 13.1 7.4 2.9 50 4.8 W 22 32 12 17 1011.1 1008.6 0.0
15/07:30am 12.9 7.5 2.7 50 4.7 W 20 32 11 17 1010.6 1008.1 0.0
15/07:00am 12.2 8.6 2.9 53 4.3 NW 11 24 6 13 1010.7 1008.2 0.0
15/06:30am 12.2 8.3 3.4 55 4.1 NW 13 22 7 12 1010.6 1008.1 0.0
15/06:00am 11.8 7.8 3.1 55 4.0 NW 13 22 7 12 1010.6 1008.1 0.0
15/05:30am 12.0 7.4 3.5 56 4.0 NW 17 26 9 14 1010.2 1007.7 0.0
15/05:00am 11.8 7.6 3.6 57 3.9 WNW 15 26 8 14 1010.3 1007.8 0.0
15/04:30am 11.4 8.3 3.4 58 3.7 NW 9 15 5 8 1010.3 1007.8 0.0
15/04:00am 12.2 7.2 3.4 55 4.1 WNW 19 28 10 15 1010.6 1008.1 0.0
15/03:30am 11.8 8.3 3.6 57 3.8 WNW 11 20 6 11 1010.9 1008.3 0.0
15/03:00am 12.3 7.7 3.5 55 4.1 WNW 17 28 9 15 1011.2 1008.7 0.0
15/02:30am 12.5 5.9 4.0 56 4.0 WNW 28 41 15 22 1011.1 1008.6 0.0
15/02:00am 12.5 6.6 3.7 55 4.2 WNW 24 37 13 20 1011.2 1008.7 0.0
15/01:30am 12.7 7.8 3.9 55 4.2 NW 19 33 10 18 1011.7 1009.2 0.0
15/01:00am 12.1 8.3 4.1 58 3.8 WNW 13 22 7 12 1012.2 1009.7 0.0
15/12:30am 10.7 8.2 3.5 61 3.3 ESE 6 13 3 7 1012.4 1009.9 0.0
15/12:00am 11.9 9.2 3.7 57 3.9 NNE 7 9 4 5 1012.7 1010.2 0.0
 
Date/Time
EDT
Temp
°C
App
Temp
°C
Dew
Point
°C
Rel
Hum
%
Delta-T
°C
Wind Press
QNH
hPa
Press
MSL
hPa
Rain since
9am
mm
Dir  Spd
km/h
Gust
km/h
Spd
kts
Gust
kts
14/11:30pm 11.5 7.2 3.5 58 3.7 NNW 15 17 8 9 1012.9 1010.4 0.0
14/11:00pm 12.4 8.9 3.4 54 4.2 NW 11 15 6 8 1013.4 1010.9 0.0
14/10:30pm 12.6 7.9 3.3 53 4.4 WNW 17 26 9 14 1013.5 1011.0 0.0
14/10:00pm 12.3 9.5 3.3 54 4.2 WNW 7 15 4 8 1013.8 1011.3 0.0
14/09:30pm 12.7 9.5 2.8 51 4.6 WNW 9 15 5 8 1013.8 1011.3 0.0
14/09:00pm 13.1 10.3 2.9 50 4.8 N 7 13 4 7 1013.6 1011.1 0.0
14/08:30pm 13.7 9.1 3.5 50 4.8 WNW 17 28 9 15 1013.5 1011.0 0.0
14/08:00pm 14.1 9.4 3.3 48 5.1 WNW 17 26 9 14 1013.2 1010.7 0.0
14/07:30pm 15.3 10.7 3.5 45 5.7 WNW 17 24 9 13 1012.9 1010.4 0.0
14/07:00pm 15.6 10.4 3.4 44 5.9 W 20 30 11 16 1012.9 1010.4 0.0
14/06:30pm 16.3 9.9 3.0 41 6.4 W 26 37 14 20 1012.8 1010.3 0.0
14/06:00pm 16.9 10.8 2.9 39 6.7 W 24 33 13 18 1012.7 1010.2 0.0
14/05:30pm 17.9 12.7 3.4 38 7.1 W 20 28 11 15 1012.7 1010.2 0.0
14/05:00pm 18.3 12.5 2.2 34 7.7 W 22 30 12 16 1012.6 1010.1 0.0
14/04:30pm 18.7 12.5 2.1 33 8.0 WNW 24 33 13 18 1012.5 1010.0 0.0
14/04:00pm 20.5 14.4 2.8 31 8.7 W 24 33 13 18 1012.4 1009.9 0.0
14/03:30pm 20.3 14.1 2.2 30 8.8 W 24 39 13 21 1012.6 1010.1 0.0
14/03:00pm 20.6 14.0 2.0 29 9.0 W 26 35 14 19 1012.7 1010.2 0.0
14/02:30pm 21.2 14.7 0.4 25 9.8 WSW 24 39 13 21 1012.7 1010.2 0.0
14/02:00pm 21.0 14.5 0.2 25 9.8 WSW 24 43 13 23 1012.9 1010.4 0.0
14/01:30pm 21.4 15.3 0.6 25 9.9 WSW 22 35 12 19 1012.8 1010.3 0.0
14/01:00pm 20.7 14.3 1.1 27 9.4 SW 24 41 13 22 1013.3 1010.8 0.0
14/12:30pm 20.7 14.8 1.6 28 9.2 WSW 22 39 12 21 1013.4 1010.9 0.0
14/12:00pm 20.0 13.4 1.9 30 8.7 WSW 26 50 14 27 1013.8 1011.3 0.0
14/11:56am 20.3 14.5 2.2 30 8.8 WSW 22 50 12 27 1013.7 1011.2 0.0
14/11:30am 19.1 13.3 2.5 33 8.0 WSW 22 32 12 17 1013.9 1011.5 0.0
14/11:00am 18.1 13.3 2.4 35 7.5 W 17 37 9 20 1014.4 1011.9 0.0
14/10:30am 16.1 11.2 3.9 44 6.0 NW 19 30 10 16 1014.8 1012.3 0.0
14/10:00am 15.5 10.3 3.3 44 5.9 WNW 20 32 11 17 1014.8 1012.3 0.0
14/09:30am 15.1 10.4 3.3 45 5.6 WNW 17 24 9 13 1014.8 1012.3 0.0
14/09:00am 13.9 9.1 2.8 47 5.2 WNW 17 24 9 13 1015.0 1012.6 0.0
14/08:30am 12.9 8.0 2.2 48 4.9 W 17 30 9 16 1015.0 1012.6 0.0
14/08:00am 11.7 6.3 2.5 53 4.2 WNW 20 30 11 16 1014.9 1012.5 0.0
14/07:30am 10.4 5.5 2.3 57 3.6 WNW 17 26 9 14 1014.7 1012.2 0.0
14/07:00am 9.2 5.5 2.5 63 3.0 NW 11 19 6 10 1014.8 1012.3 0.0
14/06:30am 6.3 3.8 1.6 72 2.0 E 4 6 2 3 1014.5 1012.0 0.0
14/06:00am 5.0 2.0 0.8 74 1.7 E 6 9 3 5 1014.1 1011.7 0.0
14/05:30am 6.3 4.2 1.4 71 2.1 NNW 2 9 1 5 1013.8 1011.3 0.0
14/05:00am 6.4 3.3 0.3 65 2.5 N 6 11 3 6 1013.4 1010.9 0.0
14/04:30am 8.4 3.8 1.6 62 3.0 NW 15 20 8 11 1013.5 1011.0 0.0
14/04:00am 9.0 5.1 1.2 58 3.4 WNW 11 17 6 9 1013.6 1011.1 0.0
14/03:30am 9.0 4.8 1.4 59 3.3 WNW 13 17 7 9 1013.9 1011.5 0.0
14/03:00am 8.7 4.1 1.4 60 3.2 W 15 22 8 12 1013.9 1011.5 0.0
14/02:30am 8.7 4.1 1.4 60 3.2 W 15 20 8 11 1014.1 1011.7 0.0
14/02:00am 8.0 4.1 1.0 61 3.0 WNW 11 15 6 8 1014.2 1011.8 0.0
14/01:30am 8.6 3.5 0.8 58 3.3 W 17 22 9 12 1014.5 1012.0 0.0
14/01:00am 8.7 2.3 0.9 58 3.4 W 24 30 13 16 1014.5 1012.0 0.0
14/12:30am 8.6 3.1 0.8 58 3.3 W 19 26 10 14 1014.8 1012.3 0.0
14/12:00am 9.0 3.5 0.7 56 3.6 W 19 24 10 13 1015.0 1012.6 0.0
 
Date/Time
EDT
Temp
°C
App
Temp
°C
Dew
Point
°C
Rel
Hum
%
Delta-T
°C
Wind Press
QNH
hPa
Press
MSL
hPa
Rain since
9am
mm
Dir  Spd
km/h
Gust
km/h
Spd
kts
Gust
kts
13/11:30pm 9.4 3.0 0.8 55 3.7 W 24 32 13 17 1015.0 1012.6 0.0
13/11:00pm 9.7 3.2 0.6 53 3.9 W 24 35 13 19 1015.1 1012.7 0.0
13/10:30pm 10.2 4.2 1.1 53 4.0 WSW 22 32 12 17 1015.2 1012.8 0.0
13/10:00pm 9.4 4.3 0.6 54 3.8 WSW 17 22 9 12 1015.2 1012.8 0.0
13/09:30pm 9.0 5.3 -0.1 53 3.8 W 9 15 5 8 1015.1 1012.7 0.0
13/09:00pm 9.6 4.8 0.0 51 4.1 W 15 20 8 11 1014.7 1012.2 0.0
13/08:30pm 10.2 3.6 -0.3 48 4.5 W 24 39 13 21 1014.1 1011.7 0.0
13/08:00pm 10.8 3.4 -0.6 45 4.8 W 28 37 15 20 1013.5 1011.0 0.0
13/07:30pm 11.6 4.2 -0.5 43 5.2 W 28 39 15 21 1013.3 1010.8 0.0
13/07:00pm 12.8 4.1 -0.8 39 5.9 W 35 48 19 26 1012.9 1010.4 0.0
13/06:30pm 13.6 5.2 -0.8 37 6.2 W 33 44 18 24 1012.4 1009.9 0.0
13/06:16pm 14.3 5.9 -1.3 34 6.7 W 33 54 18 29 1012.3 1009.8 0.0
13/06:00pm 14.1 5.8 -1.5 34 6.7 W 32 44 17 24 1012.1 1009.6 0.0
13/05:30pm 15.1 6.6 -1.9 31 7.3 W 33 46 18 25 1012.2 1009.7 0.0
13/05:16pm 15.2 6.6 -2.2 30 7.4 W 33 52 18 28 1012.1 1009.6 0.0
13/05:00pm 15.6 7.0 -2.3 29 7.7 W 33 46 18 25 1012.1 1009.6 0.0
13/04:30pm 16.7 8.2 -2.9 26 8.4 WSW 32 48 17 26 1011.8 1009.3 0.0
13/04:00pm 17.1 8.9 -4.2 23 8.9 WSW 30 50 16 27 1011.2 1008.7 0.0
13/03:59pm 17.3 9.5 -4.0 23 8.9 WSW 28 50 15 27 1011.2 1008.7 0.0
13/03:30pm 17.5 9.7 -3.8 23 9.0 W 28 43 15 23 1011.0 1008.4 0.0
13/03:00pm 16.6 9.2 -3.5 25 8.5 W 26 37 14 20 1011.1 1008.6 0.0
13/02:30pm 17.5 10.1 -3.8 23 9.0 WSW 26 41 14 22 1011.2 1008.7 0.0
13/02:00pm 18.0 9.7 -5.3 20 9.6 SW 30 46 16 25 1011.2 1008.7 0.0
13/01:51pm 18.0 10.0 -5.3 20 9.6 WSW 28 46 15 25 1011.1 1008.6 0.0
13/01:30pm 16.9 9.9 -6.8 19 9.3 W 22 35 12 19 1011.3 1008.8 0.0
13/01:00pm 16.7 9.6 -4.5 23 8.8 WSW 24 35 13 19 1011.4 1008.9 0.0
13/12:30pm 15.4 8.6 -5.6 23 8.3 WSW 22 33 12 18 1011.6 1009.1 0.0
13/12:00pm 14.4 8.0 -6.4 23 8.0 WSW 19 30 10 16 1012.2 1009.7 0.0
13/11:30am 13.2 6.4 -5.4 27 7.2 WSW 22 33 12 18 1012.5 1010.0 0.0
13/11:00am 12.5 6.7 -5.0 29 6.8 WSW 17 30 9 16 1012.9 1010.4 0.0
13/10:30am 12.3 5.5 -5.2 29 6.8 SW 22 33 12 18 1012.9 1010.4 0.0
13/10:00am 11.5 3.5 -5.9 29 6.6 SW 28 44 15 24 1012.9 1010.4 0.0
13/09:46am 11.2 3.2 -5.7 30 6.4 WSW 28 46 15 25 1013.0 1010.6 0.0
13/09:30am 9.8 3.0 -4.9 35 5.6 WSW 22 32 12 17 1013.2 1010.7 0.0
13/09:00am 8.7 2.9 -4.5 39 5.0 WSW 17 26 9 14 1012.8 1010.3 0.0
13/08:30am 7.9 0.7 -5.2 39 4.8 SW 24 32 13 17 1012.6 1010.1 0.0
13/08:00am 7.1 0.0 -4.6 43 4.3 SW 24 33 13 18 1012.3 1009.8 0.0
13/07:30am 6.0 -0.7 -4.2 48 3.8 WSW 22 33 12 18 1012.1 1009.6 0.0
13/07:00am 5.2 -1.1 -3.8 52 3.3 WSW 20 28 11 15 1012.0 1009.4 0.0
13/06:30am 4.2 -1.6 -4.3 54 3.1 W 17 26 9 14 1011.7 1009.2 0.0
13/06:00am 3.6 -2.7 -4.1 57 2.8 W 20 30 11 16 1011.3 1008.8 0.0
13/05:30am 2.8 -2.6 -4.9 57 2.7 WSW 15 20 8 11 1011.1 1008.6 0.0
13/05:00am 3.6 -3.2 -5.1 53 3.1 SW 22 30 12 16 1010.7 1008.2 0.0
13/04:30am 4.3 -3.6 -5.2 50 3.3 SW 28 35 15 19 1010.6 1008.1 0.0
13/04:00am 4.2 -2.2 -5.3 50 3.3 SW 20 26 11 14 1010.7 1008.2 0.0
13/03:30am 5.2 -1.6 -4.9 48 3.6 WSW 22 28 12 15 1010.7 1008.2 0.0
13/03:00am 6.0 -1.9 -4.7 46 3.9 WSW 28 37 15 20 1010.5 1008.0 0.0
13/02:30am 6.4 -1.4 -4.1 47 3.9 WSW 28 41 15 22 1010.4 1007.9 0.0
13/02:00am 7.2 0.2 -3.3 47 4.0 W 24 33 13 18 1010.2 1007.7 0.0
13/01:30am 7.0 0.4 -3.2 48 3.9 SW 22 32 12 17 1010.2 1007.7 0.0
13/01:00am 8.7 1.4 -2.9 44 4.6 WSW 26 35 14 19 1010.3 1007.8 0.0
13/12:30am 8.5 2.9 -3.0 44 4.5 WSW 17 22 9 12 1010.3 1007.8 0.0
13/12:00am 8.5 2.3 -3.3 43 4.6 WSW 20 28 11 15 1010.2 1007.7 0.0
 
Date/Time
EDT
Temp
°C
App
Temp
°C
Dew
Point
°C
Rel
Hum
%
Delta-T
°C
Wind Press
QNH
hPa
Press
MSL
hPa
Rain since
9am
mm
Dir  Spd
km/h
Gust
km/h
Spd
kts
Gust
kts
12/11:30pm 8.8 1.4 -3.7 41 4.8 W 26 39 14 21 1010.2 1007.7 0.0
12/11:00pm 9.2 2.2 -3.7 40 5.0 W 24 39 13 21 1010.2 1007.7 0.0
12/10:30pm 9.5 4.3 -2.8 42 4.9 WNW 15 20 8 11 1010.1 1007.5 0.0
12/10:00pm 10.1 4.0 -2.5 41 5.1 W 20 26 11 14 1010.1 1007.5 0.0
12/09:30pm 9.9 3.8 -2.7 41 5.0 W 20 35 11 19 1009.9 1007.3 0.0
12/09:00pm 10.4 3.8 -2.9 39 5.3 W 22 33 12 18 1009.4 1006.9 0.0
12/08:30pm 11.1 2.9 -3.8 35 5.9 W 30 43 16 23 1008.9 1006.3 0.0
12/08:00pm 11.9 3.2 -5.1 30 6.6 W 32 44 17 24 1008.3 1005.8 0.0
12/07:39pm 12.8 4.8 -5.7 27 7.1 W 28 46 15 25 1007.8 1005.2 0.0
12/07:30pm 13.2 6.1 -4.0 30 6.9 W 24 35 13 19 1007.5 1004.9 0.0
12/07:03pm 14.2 5.3 -5.5 25 7.7 W 33 57 18 31 1006.9 1004.3 0.0
12/07:00pm 14.5 5.8 -5.3 25 7.9 W 32 48 17 26 1006.9 1004.3 0.0
12/06:30pm 15.7 6.8 -5.3 23 8.4 WNW 33 57 18 31 1006.1 1003.5 0.0
12/06:25pm 16.0 8.1 -5.1 23 8.5 WNW 28 50 15 27 1005.9 1003.3 0.0
12/06:00pm 16.8 7.5 -5.0 22 8.9 WNW 35 48 19 26 1005.4 1002.8 0.0
12/05:30pm 17.8 7.7 -6.1 19 9.6 WNW 39 61 21 33 1004.9 1002.3 0.0
12/05:01pm 19.3 10.6 -4.9 19 10.1 WNW 32 54 17 29 1004.5 1001.9 0.0
12/05:00pm 19.3 10.9 -2.3 23 9.6 WNW 32 46 17 25 1004.5 1001.9 0.0
12/04:39pm 19.5 10.8 -0.5 26 9.2 W 35 57 19 31 1004.3 1001.6 0.0
12/04:30pm 19.9 11.3 0.4 27 9.1 WNW 35 50 19 27 1004.2 1001.5 0.0
12/04:00pm 20.8 12.1 -0.5 24 9.9 WNW 35 56 19 30 1003.8 1001.2 0.0
12/03:30pm 21.0 12.6 1.3 27 9.5 WNW 35 56 19 30 1003.7 1001.1 0.0
12/03:00pm 20.9 12.0 0.7 26 9.6 NW 37 57 20 31 1004.0 1001.3 0.0
12/02:31pm 21.4 12.5 0.6 25 9.9 NW 37 57 20 31 1004.2 1001.5 0.0
12/02:30pm 21.7 12.8 0.8 25 10.0 NW 37 57 20 31 1004.2 1001.5 0.0
12/02:29pm 21.5 12.6 0.7 25 9.9 NW 37 57 20 31 1004.2 1001.5 0.0
12/02:00pm 20.5 11.0 -0.7 24 9.8 NW 39 57 21 31 1004.7 1002.1 0.0
12/01:31pm 20.2 10.6 -1.6 23 9.8 NW 39 57 21 31 1004.8 1002.2 0.0
12/01:30pm 20.8 10.9 -1.1 23 10.0 NW 41 57 22 31 1004.8 1002.2 0.0
12/01:00pm 19.9 9.8 -2.4 22 9.9 NW 41 61 22 33 1005.2 1002.5 0.0
12/12:30pm 20.3 11.8 -2.1 22 10.0 NW 33 56 18 30 1005.6 1003.0 0.0
12/12:00pm 19.6 10.2 -3.3 21 10.0 NW 37 56 20 30 1005.6 1003.0 0.0

Latest Capital City Observations: Canberra | Sydney | Melbourne | Brisbane | Adelaide | Perth | Hobart | Darwin

Other formats

Comma delimited format used in spreadsheet applications
http://www.bom.gov.au/fwo/IDN60903/IDN60903.94921.axf

JavaScript Object Notation format (JSON) in row-major order
http://www.bom.gov.au/fwo/IDN60903/IDN60903.94921.json

Data quality

Most of these data are generated automatically and are frequently updated. Quality checks on data are not normally performed. It is possible for incorrect values to appear. Refer to information at About Latest Weather Observations and please check the disclaimer before using these data.